sensor_id;sensor_type;location;lat;lon;timestamp;pressure;altitude;pressure_sealevel;temperature;humidity
33280;BME280;20403;43.114;12.434;2023-03-01T00:01:14;98890.97;;;8.31;100.00
33280;BME280;20403;43.114;12.434;2023-03-01T00:03:39;98893.91;;;8.41;100.00
33280;BME280;20403;43.114;12.434;2023-03-01T00:06:05;98890.91;;;8.44;100.00
33280;BME280;20403;43.114;12.434;2023-03-01T00:08:32;98886.69;;;8.43;100.00
33280;BME280;20403;43.114;12.434;2023-03-01T00:11:28;98888.25;;;8.51;100.00
33280;BME280;20403;43.114;12.434;2023-03-01T00:13:56;98874.03;;;8.53;100.00
33280;BME280;20403;43.114;12.434;2023-03-01T00:16:31;98878.44;;;8.53;100.00
33280;BME280;20403;43.114;12.434;2023-03-01T00:18:58;98862.41;;;8.56;100.00
33280;BME280;20403;43.114;12.434;2023-03-01T00:21:25;98869.69;;;8.47;100.00
33280;BME280;20403;43.114;12.434;2023-03-01T00:23:52;98870.25;;;8.49;100.00
33280;BME280;20403;43.114;12.434;2023-03-01T00:26:19;98861.09;;;8.47;100.00
33280;BME280;20403;43.114;12.434;2023-03-01T00:28:45;98866.00;;;8.55;100.00
33280;BME280;20403;43.114;12.434;2023-03-01T00:31:19;98858.69;;;8.45;100.00
33280;BME280;20403;43.114;12.434;2023-03-01T00:33:45;98844.91;;;8.45;100.00
33280;BME280;20403;43.114;12.434;2023-03-01T00:36:12;98826.28;;;8.48;100.00
33280;BME280;20403;43.114;12.434;2023-03-01T00:38:40;98829.53;;;8.43;100.00
33280;BME280;20403;43.114;12.434;2023-03-01T00:41:08;98825.16;;;8.44;100.00
33280;BME280;20403;43.114;12.434;2023-03-01T00:43:34;98830.22;;;8.32;100.00
33280;BME280;20403;43.114;12.434;2023-03-01T00:46:07;98824.41;;;8.36;100.00
33280;BME280;20403;43.114;12.434;2023-03-01T00:48:33;98822.34;;;8.38;100.00
33280;BME280;20403;43.114;12.434;2023-03-01T00:51:16;98821.78;;;8.36;100.00
33280;BME280;20403;43.114;12.434;2023-03-01T00:53:43;98823.75;;;8.41;100.00
33280;BME280;20403;43.114;12.434;2023-03-01T00:56:10;98820.50;;;8.46;100.00
33280;BME280;20403;43.114;12.434;2023-03-01T00:58:36;98830.56;;;8.42;100.00
33280;BME280;20403;43.114;12.434;2023-03-01T01:01:11;98825.06;;;8.50;100.00
33280;BME280;20403;43.114;12.434;2023-03-01T01:03:46;98810.19;;;8.39;100.00
33280;BME280;20403;43.114;12.434;2023-03-01T01:06:19;98786.22;;;8.37;100.00
33280;BME280;20403;43.114;12.434;2023-03-01T01:08:45;98786.97;;;8.44;100.00
33280;BME280;20403;43.114;12.434;2023-03-01T01:11:11;98780.16;;;8.43;100.00
33280;BME280;20403;43.114;12.434;2023-03-01T01:13:38;98775.78;;;8.44;100.00
33280;BME280;20403;43.114;12.434;2023-03-01T01:16:05;98763.59;;;8.44;100.00
33280;BME280;20403;43.114;12.434;2023-03-01T01:18:30;98770.94;;;8.47;100.00
33280;BME280;20403;43.114;12.434;2023-03-01T01:20:56;98772.31;;;8.50;100.00
33280;BME280;20403;43.114;12.434;2023-03-01T01:23:22;98772.19;;;8.38;100.00
33280;BME280;20403;43.114;12.434;2023-03-01T01:25:47;98764.38;;;8.45;100.00
33280;BME280;20403;43.114;12.434;2023-03-01T01:28:12;98752.94;;;8.46;100.00
33280;BME280;20403;43.114;12.434;2023-03-01T01:30:38;98751.53;;;8.50;100.00
33280;BME280;20403;43.114;12.434;2023-03-01T01:33:03;98746.19;;;8.45;100.00
33280;BME280;20403;43.114;12.434;2023-03-01T01:35:29;98740.03;;;8.39;100.00
33280;BME280;20403;43.114;12.434;2023-03-01T01:37:54;98732.44;;;8.37;100.00
33280;BME280;20403;43.114;12.434;2023-03-01T01:40:19;98740.63;;;8.41;100.00
33280;BME280;20403;43.114;12.434;2023-03-01T01:42:45;98731.38;;;8.45;100.00
33280;BME280;20403;43.114;12.434;2023-03-01T01:45:35;98724.31;;;8.52;100.00
33280;BME280;20403;43.114;12.434;2023-03-01T01:48:04;98719.56;;;8.49;100.00
33280;BME280;20403;43.114;12.434;2023-03-01T01:50:33;98715.72;;;8.52;100.00
33280;BME280;20403;43.114;12.434;2023-03-01T01:53:04;98735.72;;;8.51;100.00
33280;BME280;20403;43.114;12.434;2023-03-01T01:55:30;98733.13;;;8.51;100.00
33280;BME280;20403;43.114;12.434;2023-03-01T01:58:01;98741.50;;;8.53;100.00
33280;BME280;20403;43.114;12.434;2023-03-01T02:00:29;98736.56;;;8.45;100.00
33280;BME280;20403;43.114;12.434;2023-03-01T02:02:58;98740.13;;;8.51;100.00
33280;BME280;20403;43.114;12.434;2023-03-01T02:08:30;98716.50;;;8.52;100.00
33280;BME280;20403;43.114;12.434;2023-03-01T02:10:57;98728.13;;;8.50;100.00
33280;BME280;20403;43.114;12.434;2023-03-01T02:13:25;98732.97;;;8.46;100.00
33280;BME280;20403;43.114;12.434;2023-03-01T02:15:51;98727.41;;;8.43;100.00
33280;BME280;20403;43.114;12.434;2023-03-01T02:18:18;98721.38;;;8.49;100.00
33280;BME280;20403;43.114;12.434;2023-03-01T02:23:29;98712.44;;;8.38;100.00
33280;BME280;20403;43.114;12.434;2023-03-01T02:28:38;98700.34;;;8.32;100.00
33280;BME280;20403;43.114;12.434;2023-03-01T07:49:39;98824.53;;;7.28;100.00
33280;BME280;20403;43.114;12.434;2023-03-01T07:52:04;98823.09;;;7.25;100.00
33280;BME280;20403;43.114;12.434;2023-03-01T07:54:30;98823.09;;;7.25;100.00
33280;BME280;20403;43.114;12.434;2023-03-01T07:56:56;98822.50;;;7.30;100.00
33280;BME280;20403;43.114;12.434;2023-03-01T07:59:21;98833.28;;;7.27;100.00
33280;BME280;20403;43.114;12.434;2023-03-01T08:01:48;98827.16;;;7.14;100.00
33280;BME280;20403;43.114;12.434;2023-03-01T08:04:14;98835.13;;;7.20;100.00
33280;BME280;20403;43.114;12.434;2023-03-01T08:06:39;98831.75;;;7.12;100.00
33280;BME280;20403;43.114;12.434;2023-03-01T08:09:05;98832.38;;;7.01;100.00
33280;BME280;20403;43.114;12.434;2023-03-01T08:11:30;98826.41;;;7.01;100.00
33280;BME280;20403;43.114;12.434;2023-03-01T08:13:56;98834.78;;;7.03;100.00
33280;BME280;20403;43.114;12.434;2023-03-01T08:16:22;98842.91;;;7.13;100.00
33280;BME280;20403;43.114;12.434;2023-03-01T08:18:48;98834.56;;;7.04;100.00
33280;BME280;20403;43.114;12.434;2023-03-01T08:21:16;98838.16;;;7.03;100.00
33280;BME280;20403;43.114;12.434;2023-03-01T08:23:42;98835.41;;;6.98;100.00
33280;BME280;20403;43.114;12.434;2023-03-01T08:26:10;98829.38;;;7.04;100.00
33280;BME280;20403;43.114;12.434;2023-03-01T08:28:37;98838.00;;;6.98;100.00
33280;BME280;20403;43.114;12.434;2023-03-01T08:31:12;98834.94;;;7.14;100.00
33280;BME280;20403;43.114;12.434;2023-03-01T08:33:37;98841.72;;;7.15;100.00
33280;BME280;20403;43.114;12.434;2023-03-01T08:36:04;98844.75;;;7.06;100.00
33280;BME280;20403;43.114;12.434;2023-03-01T08:38:32;98844.66;;;7.32;100.00
33280;BME280;20403;43.114;12.434;2023-03-01T08:41:00;98847.03;;;7.34;100.00
33280;BME280;20403;43.114;12.434;2023-03-01T08:43:26;98843.63;;;7.33;100.00
33280;BME280;20403;43.114;12.434;2023-03-01T08:45:51;98846.66;;;7.30;100.00
33280;BME280;20403;43.114;12.434;2023-03-01T08:48:17;98849.72;;;7.07;100.00
33280;BME280;20403;43.114;12.434;2023-03-01T08:50:42;98844.13;;;7.10;100.00
33280;BME280;20403;43.114;12.434;2023-03-01T08:53:07;98854.31;;;7.05;100.00
33280;BME280;20403;43.114;12.434;2023-03-01T08:55:33;98853.72;;;7.03;100.00
33280;BME280;20403;43.114;12.434;2023-03-01T08:57:58;98854.50;;;7.10;100.00
33280;BME280;20403;43.114;12.434;2023-03-01T09:00:24;98850.34;;;7.03;100.00
33280;BME280;20403;43.114;12.434;2023-03-01T09:02:50;98854.31;;;7.12;100.00
33280;BME280;20403;43.114;12.434;2023-03-01T09:05:15;98848.91;;;7.13;100.00
33280;BME280;20403;43.114;12.434;2023-03-01T09:07:41;98848.09;;;7.13;100.00
33280;BME280;20403;43.114;12.434;2023-03-01T09:10:06;98854.50;;;7.04;100.00
33280;BME280;20403;43.114;12.434;2023-03-01T09:12:32;98862.91;;;6.99;100.00
33280;BME280;20403;43.114;12.434;2023-03-01T09:14:57;98861.72;;;6.88;100.00
33280;BME280;20403;43.114;12.434;2023-03-01T09:17:23;98870.50;;;6.94;100.00
33280;BME280;20403;43.114;12.434;2023-03-01T09:19:48;98870.06;;;7.04;100.00
33280;BME280;20403;43.114;12.434;2023-03-01T09:22:14;98867.28;;;7.05;100.00
33280;BME280;20403;43.114;12.434;2023-03-01T09:24:39;98866.50;;;7.05;100.00
33280;BME280;20403;43.114;12.434;2023-03-01T09:27:05;98871.69;;;7.05;100.00
33280;BME280;20403;43.114;12.434;2023-03-01T09:29:35;98872.91;;;6.96;100.00
33280;BME280;20403;43.114;12.434;2023-03-01T09:32:01;98874.31;;;6.85;100.00
33280;BME280;20403;43.114;12.434;2023-03-01T09:34:26;98866.91;;;6.88;100.00
33280;BME280;20403;43.114;12.434;2023-03-01T09:36:52;98866.13;;;6.81;100.00
33280;BME280;20403;43.114;12.434;2023-03-01T09:39:17;98875.50;;;6.82;100.00
33280;BME280;20403;43.114;12.434;2023-03-01T09:42:02;98872.94;;;6.76;100.00
33280;BME280;20403;43.114;12.434;2023-03-01T09:44:30;98880.91;;;6.74;100.00
33280;BME280;20403;43.114;12.434;2023-03-01T09:46:59;98882.09;;;6.71;100.00
33280;BME280;20403;43.114;12.434;2023-03-01T09:49:35;98888.28;;;6.64;100.00
33280;BME280;20403;43.114;12.434;2023-03-01T09:52:26;98876.13;;;6.78;100.00
33280;BME280;20403;43.114;12.434;2023-03-01T09:54:55;98880.50;;;6.77;100.00
33280;BME280;20403;43.114;12.434;2023-03-01T10:00:22;98890.47;;;6.80;100.00
33280;BME280;20403;43.114;12.434;2023-03-01T10:10:35;98884.69;;;6.85;100.00
33280;BME280;20403;43.114;12.434;2023-03-01T10:13:16;98895.22;;;6.97;100.00
33280;BME280;20403;43.114;12.434;2023-03-01T10:15:50;98887.44;;;7.03;100.00
33280;BME280;20403;43.114;12.434;2023-03-01T10:18:22;98893.00;;;7.07;100.00
33280;BME280;20403;43.114;12.434;2023-03-01T10:21:01;98890.03;;;6.97;100.00
33280;BME280;20403;43.114;12.434;2023-03-01T10:23:30;98887.25;;;6.91;100.00
33280;BME280;20403;43.114;12.434;2023-03-01T10:29:03;98885.28;;;6.80;100.00
33280;BME280;20403;43.114;12.434;2023-03-01T10:31:39;98878.88;;;6.89;100.00
33280;BME280;20403;43.114;12.434;2023-03-01T10:34:11;98882.69;;;6.87;100.00
33280;BME280;20403;43.114;12.434;2023-03-01T10:36:39;98891.44;;;6.92;100.00
33280;BME280;20403;43.114;12.434;2023-03-01T10:39:15;98890.22;;;6.95;100.00
33280;BME280;20403;43.114;12.434;2023-03-01T10:41:59;98887.25;;;6.98;100.00
33280;BME280;20403;43.114;12.434;2023-03-01T10:47:13;98887.25;;;6.91;100.00
33280;BME280;20403;43.114;12.434;2023-03-01T10:49:39;98897.22;;;6.94;100.00
33280;BME280;20403;43.114;12.434;2023-03-01T10:52:36;98900.56;;;7.08;100.00
33280;BME280;20403;43.114;12.434;2023-03-01T10:58:18;98898.78;;;7.09;100.00
33280;BME280;20403;43.114;12.434;2023-03-01T11:03:21;98895.19;;;7.17;100.00
33280;BME280;20403;43.114;12.434;2023-03-01T11:08:39;98894.94;;;7.18;100.00
33280;BME280;20403;43.114;12.434;2023-03-01T11:11:13;98893.38;;;7.17;100.00
33280;BME280;20403;43.114;12.434;2023-03-01T11:13:50;98891.22;;;7.07;100.00
33280;BME280;20403;43.114;12.434;2023-03-01T11:16:23;98883.97;;;7.16;100.00
33280;BME280;20403;43.114;12.434;2023-03-01T11:22:05;98880.78;;;7.21;100.00
33280;BME280;20403;43.114;12.434;2023-03-01T11:24:49;98880.81;;;7.14;100.00
33280;BME280;20403;43.114;12.434;2023-03-01T11:32:42;98867.81;;;7.21;100.00
33280;BME280;20403;43.114;12.434;2023-03-01T11:37:44;98857.38;;;7.41;100.00
33280;BME280;20403;43.114;12.434;2023-03-01T11:40:23;98847.81;;;7.34;100.00
33280;BME280;20403;43.114;12.434;2023-03-01T11:48:41;98841.47;;;7.30;100.00
33280;BME280;20403;43.114;12.434;2023-03-01T11:51:18;98840.50;;;7.18;100.00
33280;BME280;20403;43.114;12.434;2023-03-01T11:56:46;98832.78;;;7.50;100.00
33280;BME280;20403;43.114;12.434;2023-03-01T11:59:44;98827.16;;;7.53;100.00
33280;BME280;20403;43.114;12.434;2023-03-01T12:02:32;98818.72;;;7.64;100.00
33280;BME280;20403;43.114;12.434;2023-03-01T12:07:47;98817.50;;;7.67;100.00
33280;BME280;20403;43.114;12.434;2023-03-01T12:13:04;98805.88;;;8.01;100.00
33280;BME280;20403;43.114;12.434;2023-03-01T12:16:02;98803.63;;;7.86;100.00
33280;BME280;20403;43.114;12.434;2023-03-01T12:21:34;98792.16;;;8.19;100.00
33280;BME280;20403;43.114;12.434;2023-03-01T12:27:20;98784.78;;;8.41;100.00
33280;BME280;20403;43.114;12.434;2023-03-01T12:49:45;98763.25;;;10.15;100.00
33280;BME280;20403;43.114;12.434;2023-03-01T12:54:41;98772.31;;;10.24;100.00
33280;BME280;20403;43.114;12.434;2023-03-01T12:59:51;98758.38;;;10.19;100.00
33280;BME280;20403;43.114;12.434;2023-03-01T13:02:34;98759.16;;;10.66;100.00
33280;BME280;20403;43.114;12.434;2023-03-01T13:13:19;98740.34;;;11.22;100.00
33280;BME280;20403;43.114;12.434;2023-03-01T13:15:45;98729.00;;;11.28;100.00
33280;BME280;20403;43.114;12.434;2023-03-01T13:26:04;98732.16;;;11.30;100.00
33280;BME280;20403;43.114;12.434;2023-03-01T13:31:06;98736.56;;;10.72;100.00
33280;BME280;20403;43.114;12.434;2023-03-01T13:33:40;98737.25;;;11.08;100.00
33280;BME280;20403;43.114;12.434;2023-03-01T13:36:07;98733.19;;;11.46;100.00
33280;BME280;20403;43.114;12.434;2023-03-01T13:38:48;98731.47;;;11.68;100.00
33280;BME280;20403;43.114;12.434;2023-03-01T13:44:35;98722.38;;;11.54;100.00
33280;BME280;20403;43.114;12.434;2023-03-01T13:49:46;98728.91;;;10.94;100.00
33280;BME280;20403;43.114;12.434;2023-03-01T13:52:43;98720.06;;;11.41;100.00
33280;BME280;20403;43.114;12.434;2023-03-01T13:57:44;98721.00;;;11.68;100.00
33280;BME280;20403;43.114;12.434;2023-03-01T14:03:16;98728.28;;;11.32;100.00
33280;BME280;20403;43.114;12.434;2023-03-01T14:06:06;98725.34;;;11.29;100.00
33280;BME280;20403;43.114;12.434;2023-03-01T14:08:34;98732.75;;;11.20;100.00
33280;BME280;20403;43.114;12.434;2023-03-01T14:21:31;98720.47;;;11.66;100.00
33280;BME280;20403;43.114;12.434;2023-03-01T14:23:57;98724.34;;;11.64;100.00
33280;BME280;20403;43.114;12.434;2023-03-01T14:26:23;98722.03;;;11.50;100.00
33280;BME280;20403;43.114;12.434;2023-03-01T14:28:49;98719.69;;;11.49;100.00
33280;BME280;20403;43.114;12.434;2023-03-01T14:31:35;98718.34;;;11.46;100.00
33280;BME280;20403;43.114;12.434;2023-03-01T14:34:01;98710.81;;;11.50;100.00
33280;BME280;20403;43.114;12.434;2023-03-01T14:36:29;98711.28;;;11.64;100.00
33280;BME280;20403;43.114;12.434;2023-03-01T14:38:55;98713.81;;;11.59;100.00
33280;BME280;20403;43.114;12.434;2023-03-01T14:41:25;98709.59;;;11.41;100.00
33280;BME280;20403;43.114;12.434;2023-03-01T14:43:59;98718.25;;;10.96;100.00
33280;BME280;20403;43.114;12.434;2023-03-01T14:46:30;98712.38;;;10.88;100.00
33280;BME280;20403;43.114;12.434;2023-03-01T14:48:58;98711.19;;;10.67;100.00
33280;BME280;20403;43.114;12.434;2023-03-01T14:51:26;98708.69;;;10.72;100.00
33280;BME280;20403;43.114;12.434;2023-03-01T14:53:52;98705.09;;;10.62;100.00
33280;BME280;20403;43.114;12.434;2023-03-01T14:56:18;98700.09;;;10.60;100.00
33280;BME280;20403;43.114;12.434;2023-03-01T14:58:44;98692.25;;;10.60;100.00
33280;BME280;20403;43.114;12.434;2023-03-01T15:01:14;98692.25;;;10.60;100.00
33280;BME280;20403;43.114;12.434;2023-03-01T15:03:42;98684.31;;;10.67;100.00
33280;BME280;20403;43.114;12.434;2023-03-01T15:06:14;98683.22;;;10.51;100.00
33280;BME280;20403;43.114;12.434;2023-03-01T15:08:52;98682.69;;;10.37;100.00
33280;BME280;20403;43.114;12.434;2023-03-01T15:11:31;98693.13;;;10.14;100.00
33280;BME280;20403;43.114;12.434;2023-03-01T15:13:57;98696.22;;;9.99;100.00
33280;BME280;20403;43.114;12.434;2023-03-01T15:16:29;98702.09;;;9.94;100.00
33280;BME280;20403;43.114;12.434;2023-03-01T15:19:04;98702.00;;;9.89;100.00
33280;BME280;20403;43.114;12.434;2023-03-01T15:21:37;98704.72;;;9.94;100.00
33280;BME280;20403;43.114;12.434;2023-03-01T15:27:12;98705.50;;;9.83;100.00
33280;BME280;20403;43.114;12.434;2023-03-01T15:29:34;98709.78;;;9.77;100.00
33280;BME280;20403;43.114;12.434;2023-03-01T15:32:25;98712.16;;;9.79;100.00
33280;BME280;20403;43.114;12.434;2023-03-01T15:34:51;98708.41;;;9.63;100.00
33280;BME280;20403;43.114;12.434;2023-03-01T15:37:45;98700.13;;;9.42;100.00
33280;BME280;20403;43.114;12.434;2023-03-01T15:42:57;98707.50;;;9.45;100.00
33280;BME280;20403;43.114;12.434;2023-03-01T15:45:25;98714.25;;;9.35;100.00
33280;BME280;20403;43.114;12.434;2023-03-01T15:50:26;98713.66;;;9.21;100.00
33280;BME280;20403;43.114;12.434;2023-03-01T15:52:52;98711.00;;;9.09;100.00
33280;BME280;20403;43.114;12.434;2023-03-01T15:55:25;98715.06;;;9.05;100.00
33280;BME280;20403;43.114;12.434;2023-03-01T15:58:03;98728.59;;;8.95;100.00
33280;BME280;20403;43.114;12.434;2023-03-01T16:00:29;98722.56;;;8.83;100.00
33280;BME280;20403;43.114;12.434;2023-03-01T16:02:55;98729.22;;;8.79;100.00
33280;BME280;20403;43.114;12.434;2023-03-01T16:05:29;98720.00;;;8.65;100.00
33280;BME280;20403;43.114;12.434;2023-03-01T16:07:58;98717.59;;;8.63;100.00
33280;BME280;20403;43.114;12.434;2023-03-01T16:10:24;98726.84;;;8.59;100.00
33280;BME280;20403;43.114;12.434;2023-03-01T16:12:51;98732.41;;;8.62;100.00
33280;BME280;20403;43.114;12.434;2023-03-01T16:15:21;98722.66;;;8.58;100.00
33280;BME280;20403;43.114;12.434;2023-03-01T16:17:48;98725.41;;;8.45;100.00
33280;BME280;20403;43.114;12.434;2023-03-01T16:20:14;98728.34;;;8.30;100.00
33280;BME280;20403;43.114;12.434;2023-03-01T16:22:43;98723.13;;;8.30;100.00
33280;BME280;20403;43.114;12.434;2023-03-01T16:25:10;98723.97;;;8.05;100.00
33280;BME280;20403;43.114;12.434;2023-03-01T16:27:36;98718.31;;;7.90;100.00
33280;BME280;20403;43.114;12.434;2023-03-01T16:30:03;98715.31;;;7.93;100.00
33280;BME280;20403;43.114;12.434;2023-03-01T16:32:28;98714.56;;;7.86;100.00
33280;BME280;20403;43.114;12.434;2023-03-01T16:34:54;98712.38;;;7.83;100.00
33280;BME280;20403;43.114;12.434;2023-03-01T16:37:19;98718.59;;;7.82;100.00
33280;BME280;20403;43.114;12.434;2023-03-01T16:39:46;98713.59;;;7.80;100.00
33280;BME280;20403;43.114;12.434;2023-03-01T16:42:12;98714.81;;;7.77;100.00
33280;BME280;20403;43.114;12.434;2023-03-01T16:44:38;98716.25;;;7.73;100.00
33280;BME280;20403;43.114;12.434;2023-03-01T16:47:03;98719.53;;;7.62;100.00
33280;BME280;20403;43.114;12.434;2023-03-01T16:49:28;98718.31;;;7.65;100.00
33280;BME280;20403;43.114;12.434;2023-03-01T16:51:54;98719.91;;;7.66;100.00
33280;BME280;20403;43.114;12.434;2023-03-01T16:54:19;98724.56;;;7.57;100.00
33280;BME280;20403;43.114;12.434;2023-03-01T16:56:45;98726.03;;;7.71;100.00
33280;BME280;20403;43.114;12.434;2023-03-01T16:59:10;98729.22;;;7.73;100.00
33280;BME280;20403;43.114;12.434;2023-03-01T17:01:35;98730.44;;;7.71;100.00
33280;BME280;20403;43.114;12.434;2023-03-01T17:04:06;98734.31;;;7.62;100.00
33280;BME280;20403;43.114;12.434;2023-03-01T17:06:31;98732.19;;;7.52;100.00
33280;BME280;20403;43.114;12.434;2023-03-01T17:08:58;98737.28;;;7.33;100.00
33280;BME280;20403;43.114;12.434;2023-03-01T17:11:24;98737.03;;;7.10;100.00
33280;BME280;20403;43.114;12.434;2023-03-01T17:13:49;98744.06;;;7.03;100.00
33280;BME280;20403;43.114;12.434;2023-03-01T17:16:17;98746.50;;;6.91;100.00
33280;BME280;20403;43.114;12.434;2023-03-01T17:18:43;98747.69;;;6.88;100.00
33280;BME280;20403;43.114;12.434;2023-03-01T17:21:09;98745.34;;;6.80;100.00
33280;BME280;20403;43.114;12.434;2023-03-01T17:23:36;98747.75;;;6.75;100.00
33280;BME280;20403;43.114;12.434;2023-03-01T17:26:03;98751.94;;;6.69;100.00
33280;BME280;20403;43.114;12.434;2023-03-01T17:28:29;98759.38;;;6.59;100.00
33280;BME280;20403;43.114;12.434;2023-03-01T17:30:58;98753.44;;;6.45;100.00
33280;BME280;20403;43.114;12.434;2023-03-01T17:33:23;98758.81;;;6.44;100.00
33280;BME280;20403;43.114;12.434;2023-03-01T17:35:49;98757.25;;;6.23;100.00
33280;BME280;20403;43.114;12.434;2023-03-01T17:38:15;98768.19;;;6.25;100.00
33280;BME280;20403;43.114;12.434;2023-03-01T17:40:41;98774.00;;;6.14;100.00
33280;BME280;20403;43.114;12.434;2023-03-01T17:43:07;98772.97;;;6.21;100.00
33280;BME280;20403;43.114;12.434;2023-03-01T17:45:36;98763.63;;;6.20;100.00
33280;BME280;20403;43.114;12.434;2023-03-01T17:48:01;98761.66;;;6.02;100.00
33280;BME280;20403;43.114;12.434;2023-03-01T17:50:27;98772.59;;;6.04;100.00
33280;BME280;20403;43.114;12.434;2023-03-01T17:52:52;98770.63;;;6.06;100.00
33280;BME280;20403;43.114;12.434;2023-03-01T17:55:20;98776.97;;;5.97;100.00
33280;BME280;20403;43.114;12.434;2023-03-01T17:57:46;98777.97;;;5.89;100.00
33280;BME280;20403;43.114;12.434;2023-03-01T18:00:13;98779.53;;;5.90;100.00
33280;BME280;20403;43.114;12.434;2023-03-01T18:02:39;98778.75;;;5.83;100.00
33280;BME280;20403;43.114;12.434;2023-03-01T18:05:05;98781.75;;;5.87;100.00
33280;BME280;20403;43.114;12.434;2023-03-01T18:07:30;98773.97;;;5.80;100.00
33280;BME280;20403;43.114;12.434;2023-03-01T18:09:56;98780.13;;;5.79;100.00
33280;BME280;20403;43.114;12.434;2023-03-01T18:12:21;98774.56;;;5.82;100.00
33280;BME280;20403;43.114;12.434;2023-03-01T18:14:50;98779.53;;;5.90;100.00
33280;BME280;20403;43.114;12.434;2023-03-01T18:17:19;98780.56;;;5.89;100.00
33280;BME280;20403;43.114;12.434;2023-03-01T18:19:45;98783.53;;;5.73;100.00
33280;BME280;20403;43.114;12.434;2023-03-01T18:22:10;98789.09;;;5.77;100.00
33280;BME280;20403;43.114;12.434;2023-03-01T18:24:36;98787.88;;;5.79;100.00
33280;BME280;20403;43.114;12.434;2023-03-01T18:27:02;98785.88;;;5.68;100.00
33280;BME280;20403;43.114;12.434;2023-03-01T18:29:28;98783.13;;;5.69;100.00
33280;BME280;20403;43.114;12.434;2023-03-01T18:31:53;98794.47;;;5.68;100.00
33280;BME280;20403;43.114;12.434;2023-03-01T18:34:18;98791.66;;;5.77;100.00
33280;BME280;20403;43.114;12.434;2023-03-01T18:36:44;98796.03;;;5.69;100.00
33280;BME280;20403;43.114;12.434;2023-03-01T18:39:10;98799.81;;;5.67;100.00
33280;BME280;20403;43.114;12.434;2023-03-01T18:41:36;98810.56;;;5.64;100.00
33280;BME280;20403;43.114;12.434;2023-03-01T18:44:02;98803.63;;;5.71;100.00
33280;BME280;20403;43.114;12.434;2023-03-01T18:46:29;98807.56;;;5.60;100.00
33280;BME280;20403;43.114;12.434;2023-03-01T18:48:54;98810.56;;;5.64;100.00
33280;BME280;20403;43.114;12.434;2023-03-01T18:51:22;98812.72;;;5.54;100.00
33280;BME280;20403;43.114;12.434;2023-03-01T18:53:48;98816.34;;;5.59;100.00
33280;BME280;20403;43.114;12.434;2023-03-01T18:56:14;98815.50;;;5.59;100.00
33280;BME280;20403;43.114;12.434;2023-03-01T18:58:40;98818.06;;;5.39;100.00
33280;BME280;20403;43.114;12.434;2023-03-01T19:01:18;98818.69;;;5.41;100.00
33280;BME280;20403;43.114;12.434;2023-03-01T19:03:44;98819.63;;;5.33;100.00
33280;BME280;20403;43.114;12.434;2023-03-01T19:06:09;98825.81;;;5.32;100.00
33280;BME280;20403;43.114;12.434;2023-03-01T19:08:35;98824.78;;;5.26;100.00
33280;BME280;20403;43.114;12.434;2023-03-01T19:11:03;98823.00;;;5.34;100.00
33280;BME280;20403;43.114;12.434;2023-03-01T19:13:30;98819.81;;;5.25;100.00
33280;BME280;20403;43.114;12.434;2023-03-01T19:18:32;98818.41;;;5.16;100.00
33280;BME280;20403;43.114;12.434;2023-03-01T19:20:59;98813.25;;;5.22;100.00
33280;BME280;20403;43.114;12.434;2023-03-01T19:23:26;98812.06;;;5.25;100.00
33280;BME280;20403;43.114;12.434;2023-03-01T19:25:57;98813.00;;;5.17;100.00
33280;BME280;20403;43.114;12.434;2023-03-01T19:28:23;98808.63;;;5.11;100.00
33280;BME280;20403;43.114;12.434;2023-03-01T19:30:48;98812.00;;;5.12;100.00
33280;BME280;20403;43.114;12.434;2023-03-01T19:33:14;98811.22;;;5.11;100.00
33280;BME280;20403;43.114;12.434;2023-03-01T19:35:39;98820.75;;;5.04;100.00
33280;BME280;20403;43.114;12.434;2023-03-01T19:38:04;98822.34;;;5.12;100.00
33280;BME280;20403;43.114;12.434;2023-03-01T19:40:30;98820.41;;;5.20;100.00
33280;BME280;20403;43.114;12.434;2023-03-01T19:42:55;98816.97;;;5.07;100.00
33280;BME280;20403;43.114;12.434;2023-03-01T19:45:21;98820.56;;;5.12;100.00
33280;BME280;20403;43.114;12.434;2023-03-01T19:47:46;98810.19;;;5.05;100.00
33280;BME280;20403;43.114;12.434;2023-03-01T19:50:13;98815.19;;;5.14;100.00
33280;BME280;20403;43.114;12.434;2023-03-01T19:52:38;98816.66;;;5.30;100.00
33280;BME280;20403;43.114;12.434;2023-03-01T19:55:04;98825.34;;;5.15;100.00
33280;BME280;20403;43.114;12.434;2023-03-01T19:57:29;98810.16;;;4.99;100.00
33280;BME280;20403;43.114;12.434;2023-03-01T19:59:55;98810.34;;;4.91;100.00
33280;BME280;20403;43.114;12.434;2023-03-01T20:02:20;98825.28;;;5.02;100.00
33280;BME280;20403;43.114;12.434;2023-03-01T20:04:45;98827.09;;;5.01;100.00
33280;BME280;20403;43.114;12.434;2023-03-01T20:07:11;98824.50;;;5.01;100.00
33280;BME280;20403;43.114;12.434;2023-03-01T20:09:36;98832.63;;;4.98;100.00
33280;BME280;20403;43.114;12.434;2023-03-01T20:12:02;98828.38;;;4.84;100.00
33280;BME280;20403;43.114;12.434;2023-03-01T20:14:27;98837.34;;;4.88;100.00
33280;BME280;20403;43.114;12.434;2023-03-01T20:16:53;98836.91;;;4.84;100.00
33280;BME280;20403;43.114;12.434;2023-03-01T20:19:18;98842.47;;;4.81;100.00
33280;BME280;20403;43.114;12.434;2023-03-01T20:21:44;98839.41;;;4.71;100.00
33280;BME280;20403;43.114;12.434;2023-03-01T20:24:09;98844.63;;;4.78;100.00
33280;BME280;20403;43.114;12.434;2023-03-01T20:26:35;98845.69;;;4.83;100.00
33280;BME280;20403;43.114;12.434;2023-03-01T20:29:00;98853.56;;;4.75;100.00
33280;BME280;20403;43.114;12.434;2023-03-01T20:31:26;98858.47;;;4.63;100.00
33280;BME280;20403;43.114;12.434;2023-03-01T20:33:58;98862.97;;;4.55;100.00
33280;BME280;20403;43.114;12.434;2023-03-01T20:36:23;98858.09;;;4.38;100.00